Jackson Hole Airport
KJAC : now visible

Airfield :











YOU CAN JOIN US ON...

 
LOGIN :

Register | Disclaimer

   EN    FR    IT 

 









Legend :    VFR   Marginal VFR   IFR   Intensive IFR   Very Intensive IFR
Visi :
Ceiling :
>= 8 km
>= 3000ft
5 to 8 km
1000 to 3000 ft
1500m to 5 km
500 to 1000 ft
800 to 1500m
200 to 500 ft
< 800m
< 200 ft
Symbols :   Thunderstorms  Fog  Heavy snow  Heavy precipitations  Wind > 20 kt







- Airport Elevation : 6451 ft
- IATA code : JAC


KJAC - Jackson Hole

CURRENT METAR :
  • 222256Z 27012KT 10SM BKN100 BKN120 23/04 A2999 RMK AO2 SLP105 T02330039

EXPIRED METARs :
  • 222156Z VRB04KT 10SM BKN110 24/02 A2998 RMK AO2 SLP099 T02440022
  • 222056Z 15004KT 10SM FEW110 24/03 A3001 RMK AO2 SLP110 T02390033 58003

TAF KJAC
Valid from the 23 at 00:00 until the 24 at 00:00 UTC


222331Z 2300/2324 26010KT P6SM VCSH SCT070 BKN100
FM230300 VRB05KT P6SM SCT090
FM231700 22007KT P6SM SCT070
FM232200 25009KT P6SM SCT070 AMD LTD TO CLD VIS AND WIND
No reported NOTAMs for that airfield.



MET'MAP, your aeronautical weather chart ! - Copyright ORBIFLY December 2007 - Disclaimer

ORBIFLY MET'MAP TEAM :

Programming & Development : Alexandra Zaïnal
Concept & Development : Baudouin d'Aumeries
Co-Development & Prog : Marc-Olivier Méhu
Technical & hardware support : Manuel Goepfert

Contact : metmap@orbifly.com




SOURCES & CREDITS :

   NOAA       Earth
Advisory